Guildford, United Kingdom

9:23 AM GMT on March 28, 2015 (GMT +0000)
Christchurch | | Change Station
CLOSE
Current Station
Personal Weather Station
Location: Guildford,
Elevation: 233 ft
Nearby Weather Stations

Elev 233 ft 51.24 °N, 0.55 °W | Updated 8 seconds ago

Mostly Cloudy
Mostly Cloudy
52.5 °F
Feels Like 52.5 °F
N
4.5
Wind Variable Wind from NW
Gusts 4.5 mph

Today
High -- | Low -- °F
--% Chance of Precip.
Yesterday
High -- | Low -- °F
Precip. -- in
5:47 AM 6:28 PM
First Quarter, 60% visible
Pressure 29.92 in
Visibility 4.3 miles
Clouds Mostly Cloudy 500 ft
Dew Point 48 °F
Humidity 86%
Rainfall in
Snow Depth Not available.
UV 1 out of 12
Pollen Not available.
Air Quality Not available.
Flu Activity Not available.
METAR EGLF 280850Z 22012KT 7000 BKN005 11/10 Q1013

More Conditions Fewer Conditions

Pressure 29.92 in
Visibility 4.3 miles
Clouds Mostly Cloudy 500 ft
Dew Point 48 °F
Humidity 86%
Rainfall in
Snow Depth Not available.
UV 1 out of 12
Pollen Not available.
Air Quality Not available.
Flu Activity Not available.
METAR EGLF 280850Z 22012KT 7000 BKN005 11/10 Q1013

More Conditions Fewer Conditions

10-Day Weather Forecast

Almanac

Astronomy

Mar. 28, 2015 Rise Set
Actual Time
Civil Twilight
Nautical Twilight
Astronomical Twilight
Moon
Length of Visible Light
Length of Day
Tomorrow will be .
, % of the Moon is Illuminated

Today's Extremes

Country Highs Country Lows

Community

WunderPhotos

Upload Photos

1,808,939 photos uploaded!

WunderBlogs® & News

Nearby

Air Quality

  Air Quality AQ Index Pollutant
Not available.

Snow Depth

Station Depth Elevation

Earthquake Activity

City Distance Mag. Time & Date
Minimum magnitude displayed is 2.5.

Coastal Water Temperatures

Place Temperature

Stations

Nearby Weather Stations

Station Location Temp. Windchill Dew Point Humidity Wind Precip. Elev Updated Type